createdAt,value
2022-10-28T00:00:07.833Z,8.70
2022-10-28T00:02:34.356Z,7.22
2022-10-28T00:05:00.943Z,7.53
2022-10-28T00:07:28.383Z,7.65
2022-10-28T00:09:54.786Z,8.10
2022-10-28T00:12:21.157Z,7.20
2022-10-28T00:14:47.808Z,8.10
2022-10-28T00:17:14.321Z,7.97
2022-10-28T00:19:40.754Z,6.80
2022-10-28T00:22:07.146Z,6.80
2022-10-28T00:24:33.528Z,7.05
2022-10-28T00:26:59.898Z,7.60
2022-10-28T00:29:26.344Z,7.45
2022-10-28T00:31:52.710Z,7.47
2022-10-28T00:34:21.196Z,7.60
2022-10-28T00:36:48.340Z,6.70
2022-10-28T00:39:19.918Z,6.70
2022-10-28T00:41:50.641Z,7.28
2022-10-28T00:44:48.392Z,8.05
2022-10-28T00:47:36.429Z,7.80
2022-10-28T00:50:24.593Z,7.10
2022-10-28T00:52:54.865Z,7.28
2022-10-28T00:55:22.328Z,6.75
2022-10-28T00:57:49.639Z,6.25
2022-10-28T01:00:16.523Z,7.57
2022-10-28T01:02:49.880Z,6.97
2022-10-28T01:05:20.917Z,7.60
2022-10-28T01:07:47.348Z,7.05
2022-10-28T01:10:15.002Z,7.32
2022-10-28T01:12:53.565Z,6.75
2022-10-28T01:15:31.023Z,7.05
2022-10-28T01:18:04.474Z,7.00
2022-10-28T01:21:00.486Z,6.68
2022-10-28T01:23:52.713Z,7.15
2022-10-28T01:26:37.833Z,6.78
2022-10-28T01:29:13.424Z,6.63
2022-10-28T01:31:44.695Z,6.65
2022-10-28T01:34:31.624Z,7.13
2022-10-28T01:37:06.059Z,6.53
2022-10-28T01:39:37.868Z,7.65
2022-10-28T01:42:34.928Z,7.22
2022-10-28T01:45:27.760Z,6.90
2022-10-28T01:48:19.293Z,6.55
2022-10-28T01:50:59.684Z,6.90
2022-10-28T01:53:30.124Z,6.63
2022-10-28T01:55:59.037Z,7.22
2022-10-28T01:58:29.204Z,6.60
2022-10-28T02:00:56.734Z,7.03
2022-10-28T02:03:24.629Z,6.03
2022-10-28T02:05:56.615Z,7.15
2022-10-28T02:08:49.910Z,6.75
2022-10-28T02:11:22.082Z,7.00
2022-10-28T02:14:12.722Z,6.50
2022-10-28T02:16:48.213Z,6.65
2022-10-28T02:19:33.410Z,6.75
2022-10-28T02:22:44.593Z,5.80
2022-10-28T02:28:03.741Z,7.28
2022-10-28T02:30:33.983Z,6.68
2022-10-28T02:33:02.069Z,6.85
2022-10-28T02:35:39.045Z,6.93
2022-10-28T02:38:09.193Z,7.68
2022-10-28T02:40:36.733Z,7.28
2022-10-28T02:43:05.713Z,7.22
2022-10-28T02:45:36.355Z,7.05
2022-10-28T02:48:27.088Z,7.22
2022-10-28T02:51:02.707Z,5.97
2022-10-28T02:53:32.397Z,6.00
2022-10-28T02:56:00.615Z,6.10
2022-10-28T02:58:27.085Z,7.78
2022-10-28T03:00:53.635Z,6.72
2022-10-28T03:03:22.159Z,6.28
2022-10-28T03:05:48.595Z,6.78
2022-10-28T03:08:15.013Z,7.38
2022-10-28T03:10:41.417Z,8.18
2022-10-28T03:13:07.798Z,6.80
2022-10-28T03:15:34.208Z,7.35
2022-10-28T03:18:00.637Z,7.97
2022-10-28T03:20:27.029Z,7.22
2022-10-28T03:22:53.550Z,6.60
2022-10-28T03:25:21.410Z,6.80
2022-10-28T03:27:47.806Z,7.00
2022-10-28T03:30:14.566Z,6.93
2022-10-28T03:32:44.126Z,8.18
2022-10-28T03:35:10.701Z,6.65
2022-10-28T03:37:37.093Z,7.78
2022-10-28T03:40:07.759Z,6.72
2022-10-28T03:42:35.435Z,7.20
2022-10-28T03:45:05.041Z,7.00
2022-10-28T03:47:31.444Z,7.28
2022-10-28T03:49:57.843Z,7.65
2022-10-28T03:52:24.263Z,7.88
2022-10-28T03:54:50.693Z,8.02
2022-10-28T03:57:17.328Z,7.20
2022-10-28T03:59:43.760Z,7.03
2022-10-28T04:02:10.330Z,8.02
2022-10-28T04:04:36.906Z,6.82
2022-10-28T04:07:03.537Z,7.25
2022-10-28T04:09:30.036Z,8.00
2022-10-28T04:11:56.431Z,8.20
2022-10-28T04:14:23.137Z,7.82
2022-10-28T04:16:49.563Z,7.38
2022-10-28T04:19:16.009Z,7.38
2022-10-28T04:21:42.632Z,6.93
2022-10-28T04:24:09.223Z,8.18
2022-10-28T04:26:35.638Z,7.22
2022-10-28T04:29:02.189Z,7.93
2022-10-28T04:31:29.754Z,6.95
2022-10-28T04:33:56.154Z,7.45
2022-10-28T04:36:22.581Z,7.07
2022-10-28T04:38:51.826Z,7.07
2022-10-28T04:41:18.282Z,6.97
2022-10-28T04:43:46.853Z,7.95
2022-10-28T04:46:13.274Z,7.93
2022-10-28T04:48:39.668Z,7.25
2022-10-28T04:51:06.309Z,7.53
2022-10-28T04:53:32.712Z,7.60
2022-10-28T04:55:59.666Z,7.63
2022-10-28T04:58:26.798Z,7.90
2022-10-28T05:00:53.260Z,7.05
2022-10-28T05:03:19.848Z,7.15
2022-10-28T05:05:47.349Z,7.90
2022-10-28T05:08:13.710Z,7.28
2022-10-28T05:10:40.078Z,7.82
2022-10-28T05:13:06.535Z,8.45
2022-10-28T05:15:32.942Z,7.05
2022-10-28T05:17:59.652Z,8.75
2022-10-28T05:20:26.084Z,7.57
2022-10-28T05:22:54.740Z,7.85
2022-10-28T05:25:22.330Z,7.78
2022-10-28T05:27:49.374Z,7.47
2022-10-28T05:30:16.094Z,7.00
2022-10-28T05:32:42.746Z,8.07
2022-10-28T05:35:09.854Z,8.35
2022-10-28T05:37:36.666Z,7.22
2022-10-28T05:40:09.685Z,7.63
2022-10-28T05:42:43.279Z,8.45
2022-10-28T05:45:10.822Z,8.18
2022-10-28T05:47:39.276Z,8.82
2022-10-28T05:50:07.027Z,7.60
2022-10-28T05:52:33.470Z,8.98
2022-10-28T05:54:59.844Z,7.55
2022-10-28T05:57:26.233Z,6.78
2022-10-28T05:59:52.676Z,7.25
2022-10-28T06:02:19.103Z,7.13
2022-10-28T06:04:45.623Z,7.97
2022-10-28T06:07:12.024Z,7.68
2022-10-28T06:09:38.392Z,8.70
2022-10-28T06:12:05.187Z,7.65
2022-10-28T06:14:31.635Z,7.88
2022-10-28T06:16:58.099Z,7.60
2022-10-28T06:19:24.721Z,7.78
2022-10-28T06:21:51.376Z,7.20
2022-10-28T06:24:17.820Z,8.77
2022-10-28T06:26:44.283Z,7.72
2022-10-28T06:29:10.794Z,7.57
2022-10-28T06:31:38.806Z,7.20
2022-10-28T06:34:05.329Z,8.70
2022-10-28T06:36:31.728Z,7.63
2022-10-28T06:38:58.185Z,8.68
2022-10-28T06:41:24.700Z,7.95
2022-10-28T06:43:51.087Z,8.15
2022-10-28T06:46:17.658Z,7.47
2022-10-28T06:48:45.629Z,7.53
2022-10-28T06:51:12.287Z,8.35
2022-10-28T06:53:38.716Z,7.03
2022-10-28T06:56:05.559Z,7.25
2022-10-28T06:58:31.983Z,7.68
2022-10-28T07:01:03.483Z,7.45
2022-10-28T07:03:29.938Z,8.32
2022-10-28T07:05:56.431Z,7.50
2022-10-28T07:08:23.081Z,7.82
2022-10-28T07:10:59.877Z,8.65
2022-10-28T07:13:27.084Z,7.57
2022-10-28T07:15:58.884Z,8.75
2022-10-28T07:18:27.835Z,6.72
2022-10-28T07:20:54.421Z,8.75
2022-10-28T07:23:20.819Z,6.78
2022-10-28T07:25:56.863Z,7.00
2022-10-28T07:28:24.881Z,7.05
2022-10-28T07:30:51.639Z,8.27
2022-10-28T07:33:18.270Z,7.57
2022-10-28T07:35:44.914Z,7.63
2022-10-28T07:38:11.522Z,7.30
2022-10-28T07:40:38.100Z,7.32
2022-10-28T07:43:04.522Z,8.35
2022-10-28T07:45:31.241Z,8.55
2022-10-28T07:47:57.712Z,8.10
2022-10-28T07:50:24.182Z,7.53
2022-10-28T07:52:50.916Z,7.88
2022-10-28T07:55:17.613Z,7.68
2022-10-28T07:57:44.031Z,7.35
2022-10-28T08:00:11.164Z,8.63
2022-10-28T08:02:38.200Z,8.07
2022-10-28T08:05:05.357Z,7.75
2022-10-28T08:07:34.787Z,9.13
2022-10-28T08:10:04.906Z,7.70
2022-10-28T08:12:31.469Z,7.63
2022-10-28T08:14:57.895Z,8.38
2022-10-28T08:17:24.286Z,8.55
2022-10-28T08:19:50.725Z,8.05
2022-10-28T08:22:17.214Z,9.02
2022-10-28T08:24:43.846Z,7.70
2022-10-28T08:27:10.234Z,8.35
2022-10-28T08:29:36.660Z,7.55
2022-10-28T08:32:03.064Z,7.55
2022-10-28T08:34:30.887Z,7.43
2022-10-28T08:36:57.679Z,7.43
2022-10-28T08:39:24.252Z,7.80
2022-10-28T08:42:22.433Z,7.75
2022-10-28T08:45:01.024Z,7.88
2022-10-28T08:47:42.135Z,7.80
2022-10-28T08:50:15.365Z,7.75
2022-10-28T08:52:56.109Z,7.53
2022-10-28T08:58:01.398Z,7.70
2022-10-28T09:00:31.545Z,6.68
2022-10-28T09:03:13.538Z,7.03
2022-10-28T09:05:42.374Z,6.35
2022-10-28T09:08:23.622Z,7.57
2022-10-28T09:11:08.352Z,8.57
2022-10-28T09:13:46.362Z,7.20
2022-10-28T09:16:26.160Z,8.32
2022-10-28T09:18:57.302Z,7.72
2022-10-28T09:21:40.382Z,6.97
2022-10-28T09:24:29.986Z,6.90
2022-10-28T09:27:12.855Z,6.80
2022-10-28T09:29:51.271Z,6.93
2022-10-28T09:32:41.101Z,8.95
2022-10-28T09:35:16.307Z,7.20
2022-10-28T09:37:50.954Z,8.05
2022-10-28T09:40:24.388Z,7.05
2022-10-28T09:43:25.824Z,6.88
2022-10-28T09:45:55.396Z,6.65
2022-10-28T09:48:31.209Z,7.43
2022-10-28T09:50:58.644Z,7.38
2022-10-28T09:53:31.436Z,7.22
2022-10-28T09:56:03.126Z,6.60
2022-10-28T09:58:29.554Z,8.38
2022-10-28T10:00:56.816Z,8.32
2022-10-28T10:03:23.237Z,6.97
2022-10-28T10:05:52.862Z,7.88
2022-10-28T10:08:20.325Z,7.82
2022-10-28T10:10:56.136Z,6.75
2022-10-28T10:13:29.049Z,6.93
2022-10-28T10:16:21.732Z,7.88
2022-10-28T10:18:51.981Z,7.32
2022-10-28T10:21:21.076Z,6.25
2022-10-28T10:23:47.506Z,8.52
2022-10-28T10:26:15.876Z,6.82
2022-10-28T10:28:47.319Z,6.22
2022-10-28T10:31:25.412Z,6.07
2022-10-28T10:33:57.027Z,8.48
2022-10-28T10:36:31.351Z,7.28
2022-10-28T10:38:59.659Z,6.95
2022-10-28T10:41:43.530Z,6.97
2022-10-28T10:44:22.194Z,6.88
2022-10-28T10:47:05.122Z,7.25
2022-10-28T10:49:33.745Z,7.38
2022-10-28T10:52:01.092Z,7.43
2022-10-28T10:54:30.500Z,6.55
2022-10-28T10:57:18.060Z,6.47
2022-10-28T10:59:49.322Z,7.28
2022-10-28T11:02:31.776Z,6.53
2022-10-28T11:05:02.125Z,6.43
2022-10-28T11:07:29.563Z,7.00
2022-10-28T11:09:56.181Z,5.95
2022-10-28T11:12:32.051Z,6.70
2022-10-28T11:15:02.733Z,7.22
2022-10-28T11:20:24.840Z,6.15
2022-10-28T11:23:18.064Z,6.38
2022-10-28T11:25:47.014Z,6.43
2022-10-28T11:28:42.648Z,6.22
2022-10-28T11:31:24.216Z,6.60
2022-10-28T11:34:09.354Z,5.75
2022-10-28T11:37:01.606Z,7.32
2022-10-28T11:39:34.094Z,6.05
2022-10-28T11:42:19.503Z,6.47
2022-10-28T11:44:54.493Z,7.50
2022-10-28T11:47:31.630Z,6.35
2022-10-28T11:50:26.054Z,6.47
2022-10-28T11:52:58.521Z,7.15
2022-10-28T11:55:39.314Z,7.13
2022-10-28T11:58:24.953Z,6.20
2022-10-28T12:01:26.037Z,9.10
2022-10-28T12:04:14.043Z,6.35
2022-10-28T12:06:51.824Z,7.03
2022-10-28T12:09:24.185Z,7.55
2022-10-28T12:12:17.446Z,6.70
2022-10-28T12:14:52.693Z,6.90
2022-10-28T12:17:35.150Z,6.68
2022-10-28T12:20:16.741Z,7.28
2022-10-28T12:22:55.085Z,5.57
2022-10-28T12:25:25.658Z,6.50
2022-10-28T12:27:55.937Z,7.47
2022-10-28T12:30:26.406Z,6.75
2022-10-28T12:33:11.746Z,6.60
2022-10-28T12:35:41.382Z,6.00
2022-10-28T12:38:18.791Z,6.50
2022-10-28T12:40:51.563Z,6.55
2022-10-28T12:43:30.112Z,5.97
2022-10-28T12:45:56.887Z,6.55
2022-10-28T12:48:41.304Z,6.05
2022-10-28T12:51:10.826Z,6.10
2022-10-28T12:53:52.069Z,6.20
2022-10-28T12:56:36.910Z,7.43
2022-10-28T12:59:11.173Z,7.38
2022-10-28T13:01:38.017Z,6.53
2022-10-28T13:04:04.861Z,7.22
2022-10-28T13:06:46.830Z,6.50
2022-10-28T13:09:39.348Z,6.35
2022-10-28T13:12:14.763Z,6.82
2022-10-28T13:14:53.201Z,7.07
2022-10-28T13:17:41.572Z,7.03
2022-10-28T13:20:37.711Z,6.53
2022-10-28T13:23:29.502Z,7.03
2022-10-28T13:26:06.339Z,6.88
2022-10-28T13:28:47.050Z,7.35
2022-10-28T13:33:55.087Z,7.30
2022-10-28T13:36:27.335Z,5.97
2022-10-28T13:38:59.874Z,5.88
2022-10-28T13:41:28.070Z,8.02
2022-10-28T13:43:54.369Z,7.20
2022-10-28T13:46:58.505Z,7.03
2022-10-28T13:49:29.496Z,6.20
2022-10-28T13:52:08.061Z,6.55
2022-10-28T13:54:43.447Z,7.28
2022-10-28T13:57:15.123Z,7.68
2022-10-28T13:59:50.122Z,7.93
2022-10-28T14:02:34.518Z,7.45
2022-10-28T14:05:06.147Z,6.68
2022-10-28T14:07:34.372Z,6.63
2022-10-28T14:10:20.999Z,7.55
2022-10-28T14:13:00.923Z,6.05
2022-10-28T14:15:34.033Z,7.57
2022-10-28T14:18:10.292Z,5.93
2022-10-28T14:20:48.876Z,7.50
2022-10-28T14:23:21.266Z,5.75
2022-10-28T14:25:50.640Z,6.53
2022-10-28T14:28:29.382Z,5.80
2022-10-28T14:31:07.901Z,5.78
2022-10-28T14:33:54.725Z,6.22
2022-10-28T14:36:21.046Z,6.13
2022-10-28T14:38:53.516Z,6.15
2022-10-28T14:41:19.886Z,6.80
2022-10-28T14:43:48.377Z,6.38
2022-10-28T14:46:32.986Z,5.85
2022-10-28T14:49:00.753Z,7.05
2022-10-28T14:51:30.310Z,5.80
2022-10-28T14:53:58.639Z,5.88
2022-10-28T14:56:29.932Z,5.75
2022-10-28T14:59:13.883Z,5.70
2022-10-28T15:01:59.444Z,6.40
2022-10-28T15:04:26.070Z,6.68
2022-10-28T15:06:52.676Z,5.53
2022-10-28T15:09:28.227Z,6.60
2022-10-28T15:11:57.129Z,7.38
2022-10-28T15:14:29.893Z,5.78
2022-10-28T15:16:56.820Z,5.90
2022-10-28T15:19:25.845Z,6.38
2022-10-28T15:22:03.720Z,7.07
2022-10-28T15:24:30.273Z,6.07
2022-10-28T15:26:57.453Z,5.93
2022-10-28T15:29:24.263Z,6.63
2022-10-28T15:32:10.955Z,6.55
2022-10-28T15:34:37.358Z,6.65
2022-10-28T15:37:05.376Z,8.48
2022-10-28T15:39:32.204Z,7.88
2022-10-28T15:41:59.916Z,7.20
2022-10-28T15:44:31.622Z,6.25
2022-10-28T15:46:58.975Z,7.28
2022-10-28T15:49:37.188Z,7.22
2022-10-28T15:52:18.823Z,6.32
2022-10-28T15:54:59.292Z,6.97
2022-10-28T15:57:30.734Z,6.20
2022-10-28T16:00:23.632Z,7.32
2022-10-28T16:03:12.889Z,7.97
2022-10-28T16:05:43.493Z,6.90
2022-10-28T16:08:22.201Z,7.75
2022-10-28T16:10:50.456Z,6.90
2022-10-28T16:13:25.958Z,6.65
2022-10-28T16:16:13.196Z,8.15
2022-10-28T16:18:43.237Z,7.60
2022-10-28T16:21:17.932Z,5.68
2022-10-28T16:23:48.022Z,5.95
2022-10-28T16:26:14.469Z,8.82
2022-10-28T16:28:44.946Z,6.85
2022-10-28T16:31:15.401Z,5.95
2022-10-28T16:33:42.273Z,6.60
2022-10-28T16:36:08.992Z,7.70
2022-10-28T16:38:35.452Z,6.53
2022-10-28T16:41:02.811Z,6.75
2022-10-28T16:43:30.724Z,6.50
2022-10-28T16:45:59.474Z,6.90
2022-10-28T16:48:29.325Z,6.97
2022-10-28T16:51:10.098Z,7.05
2022-10-28T16:53:36.508Z,7.18
2022-10-28T16:56:02.916Z,7.57
2022-10-28T16:58:29.787Z,6.75
2022-10-28T17:00:56.762Z,6.20
2022-10-28T17:03:23.533Z,7.13
2022-10-28T17:05:50.548Z,7.05
2022-10-28T17:08:30.824Z,7.75
2022-10-28T17:11:04.774Z,7.63
2022-10-28T17:13:31.336Z,7.20
2022-10-28T17:15:57.932Z,8.65
2022-10-28T17:18:24.973Z,8.10
2022-10-28T17:21:02.118Z,7.88
2022-10-28T17:23:29.540Z,7.60
2022-10-28T17:26:00.585Z,7.88
2022-10-28T17:28:27.088Z,7.97
2022-10-28T17:30:53.506Z,8.00
2022-10-28T17:33:19.919Z,8.55
2022-10-28T17:35:46.354Z,8.20
2022-10-28T17:38:12.742Z,8.63
2022-10-28T17:40:39.121Z,10.23
2022-10-28T17:43:05.524Z,8.05
2022-10-28T17:45:31.904Z,7.95
2022-10-28T17:47:59.456Z,9.25
2022-10-28T17:50:25.853Z,8.82
2022-10-28T17:52:53.178Z,9.45
2022-10-28T17:55:19.894Z,10.20
2022-10-28T17:57:46.411Z,11.27
2022-10-28T18:00:13.766Z,9.77
2022-10-28T18:02:40.696Z,10.63
2022-10-28T18:05:07.575Z,11.40
2022-10-28T18:07:34.841Z,10.85
2022-10-28T18:10:01.235Z,10.68
2022-10-28T18:12:27.686Z,9.68
2022-10-28T18:14:54.066Z,10.10
2022-10-28T18:17:20.459Z,11.32
2022-10-28T18:19:46.879Z,9.70
2022-10-28T18:22:13.317Z,10.27
2022-10-28T18:24:42.048Z,10.20
2022-10-28T18:27:08.576Z,11.55
2022-10-28T18:29:37.324Z,9.80
2022-10-28T18:32:04.511Z,8.60
2022-10-28T18:34:31.753Z,10.68
2022-10-28T18:36:58.443Z,10.48
2022-10-28T18:39:24.934Z,9.20
2022-10-28T18:41:51.586Z,10.25
2022-10-28T18:44:21.490Z,10.45
2022-10-28T18:46:51.452Z,10.90
2022-10-28T18:49:17.824Z,10.05
2022-10-28T18:51:44.216Z,11.45
2022-10-28T18:54:10.882Z,10.52
2022-10-28T18:56:37.291Z,9.35
2022-10-28T18:59:04.668Z,11.65
2022-10-28T19:01:31.943Z,10.63
2022-10-28T19:04:00.104Z,10.20
2022-10-28T19:06:30.553Z,10.38
2022-10-28T19:08:59.154Z,11.20
2022-10-28T19:11:29.978Z,9.70
2022-10-28T19:16:25.076Z,10.13
2022-10-28T19:18:58.580Z,10.05
2022-10-28T19:21:25.854Z,9.35
2022-10-28T19:23:52.860Z,9.80
2022-10-28T19:26:19.584Z,9.50
2022-10-28T19:28:47.678Z,9.27
2022-10-28T19:31:17.033Z,10.65
2022-10-28T19:33:45.084Z,9.85
2022-10-28T19:36:18.597Z,8.77
2022-10-28T19:38:46.681Z,9.15
2022-10-28T19:41:18.165Z,9.88
2022-10-28T19:43:45.084Z,9.27
2022-10-28T19:46:13.475Z,9.05
2022-10-28T19:48:41.304Z,8.95
2022-10-28T19:51:08.585Z,9.45
2022-10-28T19:53:35.315Z,8.80
2022-10-28T19:56:03.794Z,9.68
2022-10-28T19:58:31.101Z,8.57
2022-10-28T20:00:58.486Z,9.35
2022-10-28T20:03:25.003Z,10.13
2022-10-28T20:06:07.703Z,8.80
2022-10-28T20:08:35.953Z,10.15
2022-10-28T20:11:05.492Z,8.68
2022-10-28T20:13:32.160Z,10.15
2022-10-28T20:16:02.576Z,9.27
2022-10-28T20:18:30.896Z,9.05
2022-10-28T20:21:03.160Z,9.60
2022-10-28T20:23:29.535Z,8.85
2022-10-28T20:25:55.906Z,9.43
2022-10-28T20:28:22.287Z,9.43
2022-10-28T20:30:56.743Z,10.10
2022-10-28T20:33:23.828Z,8.73
2022-10-28T20:35:50.275Z,8.75
2022-10-28T20:38:16.725Z,9.55
2022-10-28T20:40:48.225Z,9.38
2022-10-28T20:43:15.674Z,10.55
2022-10-28T20:45:42.031Z,9.73
2022-10-28T20:48:08.509Z,9.95
2022-10-28T20:50:34.903Z,11.98
2022-10-28T20:53:01.290Z,11.38
2022-10-28T20:55:27.694Z,10.55
2022-10-28T20:57:54.060Z,11.05
2022-10-28T21:00:20.515Z,10.32
2022-10-28T21:02:47.029Z,9.65
2022-10-28T21:05:13.691Z,9.40
2022-10-28T21:07:40.099Z,10.27
2022-10-28T21:10:07.036Z,10.65
2022-10-28T21:12:33.417Z,13.40
2022-10-28T21:14:59.790Z,12.57
2022-10-28T21:17:26.209Z,11.23
2022-10-28T21:19:52.700Z,11.15
2022-10-28T21:22:19.922Z,11.05
2022-10-28T21:24:46.415Z,13.52
2022-10-28T21:27:12.869Z,13.20
2022-10-28T21:29:39.368Z,11.27
2022-10-28T21:32:05.891Z,13.57
2022-10-28T21:34:32.301Z,11.88
2022-10-28T21:36:58.690Z,12.30
2022-10-28T21:39:25.078Z,15.13
2022-10-28T21:41:51.440Z,14.23
2022-10-28T21:44:17.896Z,13.50
2022-10-28T21:46:47.770Z,12.82
2022-10-28T21:49:16.540Z,15.15
2022-10-28T21:51:42.980Z,14.20
2022-10-28T21:54:09.508Z,14.18
2022-10-28T21:56:35.921Z,13.52
2022-10-28T21:59:02.276Z,13.73
2022-10-28T22:01:28.907Z,14.02
2022-10-28T22:03:55.913Z,12.13
2022-10-28T22:06:22.519Z,13.88
2022-10-28T22:08:49.063Z,13.07
2022-10-28T22:11:18.000Z,14.32
2022-10-28T22:13:44.688Z,13.50
2022-10-28T22:16:15.632Z,13.45
2022-10-28T22:21:17.600Z,12.32
2022-10-28T22:23:44.197Z,12.20
2022-10-28T22:26:13.183Z,13.25
2022-10-28T22:28:40.137Z,13.18
2022-10-28T22:31:09.102Z,12.15
2022-10-28T22:33:35.771Z,13.20
2022-10-28T22:36:08.017Z,12.63
2022-10-28T22:38:34.461Z,13.98
2022-10-28T22:41:21.466Z,14.18
2022-10-28T22:43:50.090Z,13.05
2022-10-28T22:46:17.004Z,13.68
2022-10-28T22:48:43.767Z,13.15
2022-10-28T22:51:10.504Z,12.82
2022-10-28T22:53:37.987Z,12.73
2022-10-28T22:56:05.631Z,13.23
2022-10-28T22:58:32.483Z,13.38
2022-10-28T23:01:07.061Z,13.73
2022-10-28T23:03:41.862Z,13.00
2022-10-28T23:06:09.459Z,12.88
2022-10-28T23:08:37.620Z,13.55
2022-10-28T23:11:04.437Z,14.73
2022-10-28T23:13:31.106Z,13.95
2022-10-28T23:16:01.851Z,15.07
2022-10-28T23:18:28.209Z,12.85
2022-10-28T23:20:54.611Z,12.40
2022-10-28T23:23:20.970Z,13.63
2022-10-28T23:25:54.249Z,13.13
2022-10-28T23:28:21.150Z,14.63
2022-10-28T23:30:47.758Z,13.38
2022-10-28T23:33:14.394Z,12.70
2022-10-28T23:35:42.809Z,13.90
2022-10-28T23:38:11.654Z,13.32
2022-10-28T23:40:38.422Z,14.68
2022-10-28T23:43:05.309Z,14.98
2022-10-28T23:45:31.774Z,13.35
2022-10-28T23:47:58.174Z,14.48
2022-10-28T23:50:24.589Z,14.95
2022-10-28T23:52:55.439Z,14.38
2022-10-28T23:55:22.057Z,13.73
2022-10-28T23:57:48.520Z,15.30
